Time;durP1;ratioP1;P1;durP2;ratioP2;P2;SDS_P1;SDS_P2;PMS_P1;PMS_P2;Temp;Humidity;BMP_temperature;BMP_pressure;BME280_temperature;BME280_humidity;BME280_pressure;Samples;Min_cycle;Max_cycle;Signal;HPM_P1;HPM_P2
2024/03/04 00:02:17;;;;;;;29.02;17.00;;;8.70;99.90;;;;;;6239929;22;20033;-81
2024/03/04 00:04:43;;;;;;;19.98;14.52;;;8.60;99.90;;;;;;6215615;22;20353;-81
2024/03/04 00:07:08;;;;;;;29.10;17.98;;;8.60;99.90;;;;;;6215886;22;20027;-81
2024/03/04 00:09:35;;;;;;;27.13;16.52;;;8.50;99.90;;;;;;6216070;22;20073;-80
2024/03/04 00:12:01;;;;;;;28.70;18.13;;;8.60;99.90;;;;;;6241073;22;20388;-80
2024/03/04 00:14:27;;;;;;;36.58;21.98;;;8.60;99.90;;;;;;6225451;22;20032;-86
2024/03/04 00:16:53;;;;;;;34.17;21.85;;;8.40;99.90;;;;;;6233527;22;20016;-88
2024/03/04 00:19:18;;;;;;;30.42;18.85;;;8.40;99.90;;;;;;6229596;22;20018;-88
2024/03/04 00:21:48;;;;;;;27.00;17.00;;;8.50;99.90;;;;;;6251767;22;20011;-90
2024/03/04 00:24:13;;;;;;;25.63;16.05;;;8.60;99.90;;;;;;6228606;22;20015;-88
2024/03/04 00:26:40;;;;;;;33.10;21.60;;;8.70;99.90;;;;;;6256566;22;20095;-91
2024/03/04 00:29:06;;;;;;;23.60;15.40;;;8.80;99.90;;;;;;6238276;22;20022;-86
2024/03/04 00:31:31;;;;;;;36.50;23.00;;;8.70;99.90;;;;;;6223183;22;20003;-81
2024/03/04 00:33:57;;;;;;;31.50;20.40;;;8.70;99.90;;;;;;6215936;22;20027;-81
2024/03/04 00:36:24;;;;;;;30.33;19.70;;;8.60;99.90;;;;;;6216350;22;20007;-81
2024/03/04 00:38:53;;;;;;;24.67;16.67;;;8.70;99.90;;;;;;6210107;22;20011;-82
2024/03/04 00:41:24;;;;;;;26.77;16.10;;;8.60;99.90;;;;;;6216500;22;20464;-81
2024/03/04 00:43:50;;;;;;;30.58;20.67;;;8.80;99.90;;;;;;6240738;22;20505;-81
2024/03/04 00:46:16;;;;;;;42.08;24.17;;;8.90;99.90;;;;;;6215238;22;20069;-81
2024/03/04 00:48:44;;;;;;;41.78;27.60;;;8.90;99.90;;;;;;6215555;22;20347;-82
2024/03/04 00:51:13;;;;;;;14.50;8.63;;;8.80;99.90;;;;;;6241489;22;20468;-81
2024/03/04 00:53:39;;;;;;;36.58;24.20;;;8.80;99.90;;;;;;6191653;22;20008;-82
2024/03/04 00:56:05;;;;;;;29.05;17.60;;;8.80;99.90;;;;;;6215400;22;20016;-81
2024/03/04 00:58:31;;;;;;;39.58;24.00;;;8.80;99.90;;;;;;6215458;22;20026;-81
2024/03/04 01:00:59;;;;;;;31.00;18.15;;;8.80;99.90;;;;;;6244080;22;20018;-82
2024/03/04 01:03:25;;;;;;;53.92;33.60;;;8.70;99.90;;;;;;6219028;22;20327;-81
2024/03/04 01:05:51;;;;;;;56.08;32.90;;;8.80;99.90;;;;;;6227176;22;20014;-81
2024/03/04 01:08:18;;;;;;;53.08;33.30;;;8.70;99.90;;;;;;6214940;22;20050;-81
2024/03/04 01:10:44;;;;;;;41.22;25.52;;;8.80;99.90;;;;;;6241186;22;20079;-82
2024/03/04 01:13:10;;;;;;;60.38;36.72;;;8.90;99.90;;;;;;6214735;22;20023;-81
2024/03/04 01:15:35;;;;;;;62.60;36.92;;;8.90;99.90;;;;;;6215750;22;20023;-80
2024/03/04 01:18:02;;;;;;;67.07;37.65;;;8.90;99.90;;;;;;6241424;22;20028;-81
2024/03/04 01:20:28;;;;;;;56.05;31.25;;;8.90;99.90;;;;;;6242348;22;20015;-81
2024/03/04 01:22:54;;;;;;;71.20;40.72;;;8.80;99.90;;;;;;6217447;22;20476;-81
2024/03/04 01:25:19;;;;;;;48.13;24.55;;;8.80;99.90;;;;;;6236269;22;20015;-89
2024/03/04 01:27:45;;;;;;;64.68;38.00;;;8.80;99.90;;;;;;6242483;22;20030;-87
2024/03/04 01:30:13;;;;;;;63.10;36.28;;;9.00;99.90;;;;;;6269761;22;20059;-87
2024/03/04 01:32:40;;;;;;;72.80;39.58;;;9.10;99.90;;;;;;6267572;22;20027;-87
2024/03/04 01:35:09;;;;;;;65.80;34.78;;;8.90;99.90;;;;;;6241105;22;20039;-89
2024/03/04 01:37:38;;;;;;;63.63;35.60;;;8.90;99.90;;;;;;6257470;22;20003;-86
2024/03/04 01:40:07;;;;;;;79.60;43.70;;;9.00;99.90;;;;;;6227293;22;20015;-86
2024/03/04 01:42:35;;;;;;;75.72;41.50;;;8.90;99.90;;;;;;6217177;22;20000;-86
2024/03/04 01:45:01;;;;;;;64.45;35.97;;;8.80;99.90;;;;;;6241860;22;20417;-85
2024/03/04 01:47:27;;;;;;;70.50;38.95;;;9.00;99.90;;;;;;6242969;22;20033;-85
2024/03/04 01:49:53;;;;;;;65.57;37.75;;;9.00;99.90;;;;;;6265453;22;20012;-89
2024/03/04 01:52:20;;;;;;;71.43;38.22;;;8.90;99.90;;;;;;6215538;22;20065;-86
2024/03/04 01:54:47;;;;;;;63.72;35.70;;;9.00;99.90;;;;;;6238577;22;20060;-89
2024/03/04 01:57:17;;;;;;;68.63;37.05;;;9.00;99.90;;;;;;6240399;22;20007;-86
2024/03/04 01:59:45;;;;;;;75.57;41.75;;;8.90;99.90;;;;;;6242513;22;20015;-89
2024/03/04 02:02:11;;;;;;;68.53;38.78;;;9.00;99.90;;;;;;6266081;22;19992;-85
2024/03/04 02:04:39;;;;;;;77.07;42.05;;;9.00;99.90;;;;;;6240749;22;20004;-85
2024/03/04 02:07:04;;;;;;;74.35;41.20;;;8.90;99.90;;;;;;6240975;22;20008;-86
2024/03/04 02:09:30;;;;;;;80.15;40.55;;;8.90;99.90;;;;;;6214065;22;20007;-83
2024/03/04 02:11:56;;;;;;;83.85;41.40;;;9.10;99.90;;;;;;6241405;22;19991;-88
2024/03/04 02:14:23;;;;;;;73.53;40.40;;;9.10;99.90;;;;;;6242169;22;20039;-88
2024/03/04 02:16:49;;;;;;;79.32;42.13;;;9.00;99.90;;;;;;6228597;22;20016;-85
2024/03/04 02:19:15;;;;;;;81.75;42.50;;;9.00;99.90;;;;;;6240755;22;20003;-88
2024/03/04 02:21:45;;;;;;;68.40;37.58;;;9.20;99.90;;;;;;6265947;22;20019;-87
2024/03/04 02:24:11;;;;;;;76.38;41.60;;;9.10;99.90;;;;;;6239515;22;20012;-85
2024/03/04 02:26:40;;;;;;;71.97;40.10;;;9.10;99.90;;;;;;6189127;22;20008;-87
2024/03/04 02:29:06;;;;;;;79.20;43.10;;;9.10;99.90;;;;;;6237475;22;20043;-85
2024/03/04 02:31:32;;;;;;;84.40;47.95;;;9.10;99.90;;;;;;6239053;22;20038;-85
2024/03/04 02:33:57;;;;;;;82.63;43.97;;;9.00;99.90;;;;;;6226815;22;20003;-88
2024/03/04 02:36:26;;;;;;;92.07;46.17;;;9.00;99.90;;;;;;6239743;22;20043;-84
2024/03/04 02:38:54;;;;;;;61.90;32.97;;;9.00;99.90;;;;;;6240606;22;20042;-90
2024/03/04 02:41:23;;;;;;;75.22;39.20;;;9.00;99.90;;;;;;6225742;22;20015;-87
2024/03/04 02:43:51;;;;;;;83.10;42.58;;;9.00;99.90;;;;;;6240567;22;19991;-88
2024/03/04 02:46:18;;;;;;;64.57;34.03;;;9.00;99.90;;;;;;6226666;22;20004;-89
2024/03/04 02:48:44;;;;;;;81.93;45.83;;;8.90;99.90;;;;;;6240217;22;20341;-85
2024/03/04 02:51:10;;;;;;;73.78;39.13;;;8.90;99.90;;;;;;6223492;22;19992;-85
2024/03/04 02:53:36;;;;;;;69.53;36.45;;;8.90;99.90;;;;;;6264940;22;20047;-84
2024/03/04 02:56:02;;;;;;;76.70;39.38;;;9.00;99.90;;;;;;6227571;22;20027;-85
2024/03/04 02:58:28;;;;;;;79.82;42.50;;;9.00;99.90;;;;;;6242807;22;20020;-86
2024/03/04 03:00:56;;;;;;;74.32;39.08;;;9.10;99.90;;;;;;6242188;22;20027;-86
2024/03/04 03:03:23;;;;;;;81.85;40.55;;;9.00;99.90;;;;;;6227651;22;20011;-84
2024/03/04 03:05:49;;;;;;;74.85;42.20;;;9.10;99.90;;;;;;6224674;22;20033;-87
2024/03/04 03:08:15;;;;;;;65.38;34.55;;;8.90;99.90;;;;;;6228385;22;20023;-83
2024/03/04 03:10:44;;;;;;;64.38;33.97;;;9.00;99.90;;;;;;6240448;22;20027;-83
2024/03/04 03:13:11;;;;;;;65.60;34.58;;;9.00;99.90;;;;;;6206811;22;20024;-91
2024/03/04 03:15:38;;;;;;;56.55;32.05;;;9.00;99.90;;;;;;6213979;23;20020;-90
2024/03/04 03:18:06;;;;;;;65.60;35.42;;;9.00;99.90;;;;;;6214508;23;20486;-90
2024/03/04 03:20:32;;;;;;;67.63;36.17;;;8.90;99.90;;;;;;6213304;23;20012;-90
2024/03/04 03:22:58;;;;;;;66.88;34.67;;;9.00;99.90;;;;;;6214240;23;20068;-90
2024/03/04 03:25:23;;;;;;;61.05;32.15;;;9.10;99.90;;;;;;6213413;23;20008;-91
2024/03/04 03:27:49;;;;;;;61.13;31.38;;;9.00;99.90;;;;;;6211972;23;20016;-91
2024/03/04 03:30:17;;;;;;;65.97;35.05;;;8.90;99.90;;;;;;6211753;23;20012;-91
2024/03/04 03:32:45;;;;;;;66.93;33.97;;;9.00;99.90;;;;;;6212308;23;20669;-90
2024/03/04 03:35:11;;;;;;;57.10;31.00;;;8.90;99.90;;;;;;6212864;23;20019;-91
2024/03/04 03:37:36;;;;;;;64.18;33.90;;;8.90;99.90;;;;;;6212827;23;20017;-89
2024/03/04 03:40:03;;;;;;;62.97;35.00;;;8.90;99.90;;;;;;6214426;23;20031;-90
2024/03/04 03:42:31;;;;;;;55.25;33.13;;;8.90;99.90;;;;;;6214128;23;20082;-90
2024/03/04 03:44:56;;;;;;;60.72;33.10;;;8.90;99.90;;;;;;6214534;23;20012;-90
2024/03/04 03:47:22;;;;;;;59.45;30.08;;;8.90;99.90;;;;;;6213261;23;20026;-90
2024/03/04 03:49:48;;;;;;;56.67;29.67;;;9.00;99.90;;;;;;6212187;23;20016;-89
2024/03/04 03:52:13;;;;;;;58.55;32.95;;;9.00;99.90;;;;;;6198407;23;20488;-90
2024/03/04 03:54:39;;;;;;;45.45;24.85;;;8.90;99.90;;;;;;6212054;23;20035;-90
2024/03/04 03:57:06;;;;;;;56.25;30.20;;;9.00;99.90;;;;;;6213507;23;20019;-90
2024/03/04 03:59:32;;;;;;;61.03;34.53;;;9.00;99.90;;;;;;6213368;23;20108;-90
2024/03/04 04:01:57;;;;;;;65.63;34.50;;;8.90;99.90;;;;;;6242869;22;20857;-90
2024/03/04 04:04:25;;;;;;;78.88;41.78;;;9.10;99.90;;;;;;6242573;22;20011;-90
2024/03/04 04:06:51;;;;;;;53.35;29.80;;;8.90;99.90;;;;;;6242296;22;20441;-89
2024/03/04 04:09:17;;;;;;;65.63;33.85;;;8.90;99.90;;;;;;6243811;22;20012;-90
2024/03/04 04:11:43;;;;;;;48.33;26.60;;;9.00;99.90;;;;;;6243166;22;20015;-89
2024/03/04 04:14:09;;;;;;;44.38;25.27;;;8.90;99.90;;;;;;6238194;22;20016;-89
2024/03/04 04:16:34;;;;;;;79.05;39.25;;;8.90;99.90;;;;;;6213388;22;20091;-90
2024/03/04 04:19:00;;;;;;;70.28;36.38;;;9.00;99.90;;;;;;6213573;23;20008;-90
2024/03/04 04:21:26;;;;;;;64.85;33.58;;;8.90;99.90;;;;;;6213106;22;20027;-89
2024/03/04 04:23:52;;;;;;;70.32;35.78;;;9.00;99.90;;;;;;6213979;22;20092;-90
2024/03/04 04:26:24;;;;;;;54.85;30.40;;;9.00;99.90;;;;;;6212669;22;20304;-89
2024/03/04 04:28:50;;;;;;;57.83;31.70;;;8.90;99.90;;;;;;6213173;22;20454;-90
2024/03/04 04:31:22;;;;;;;60.45;30.20;;;9.10;99.90;;;;;;6188109;22;20069;-90
2024/03/04 04:33:49;;;;;;;51.60;26.83;;;9.00;99.90;;;;;;6213214;22;20024;-89
2024/03/04 04:36:18;;;;;;;50.28;25.73;;;9.00;99.90;;;;;;6213750;22;20024;-90
2024/03/04 04:38:44;;;;;;;46.25;25.35;;;9.00;99.90;;;;;;6211517;22;20366;-90
2024/03/04 04:41:09;;;;;;;44.67;24.40;;;9.10;99.90;;;;;;6214258;22;20016;-90
2024/03/04 04:43:36;;;;;;;54.60;28.65;;;8.90;99.90;;;;;;6213147;22;20063;-90
2024/03/04 04:46:02;;;;;;;55.75;30.42;;;8.90;99.90;;;;;;6214221;23;20031;-91
2024/03/04 04:48:29;;;;;;;57.55;28.40;;;8.90;99.90;;;;;;6213782;22;20016;-90
2024/03/04 04:50:56;;;;;;;52.17;27.95;;;8.90;99.90;;;;;;6212738;22;20008;-91
2024/03/04 04:53:23;;;;;;;48.92;23.75;;;8.80;99.90;;;;;;6211377;22;20012;-91
2024/03/04 04:55:49;;;;;;;52.15;26.50;;;8.80;99.90;;;;;;6214093;22;20369;-90
2024/03/04 04:58:19;;;;;;;52.70;26.70;;;8.70;99.90;;;;;;6212774;22;20076;-92
2024/03/04 05:00:45;;;;;;;46.33;25.45;;;8.80;99.90;;;;;;6213708;22;20040;-90
2024/03/04 05:03:10;;;;;;;34.45;19.30;;;8.90;99.90;;;;;;6212263;22;20008;-90
2024/03/04 05:05:36;;;;;;;56.80;28.73;;;8.90;99.90;;;;;;6211497;22;20008;-91
2024/03/04 05:08:02;;;;;;;56.80;26.50;;;8.90;99.90;;;;;;6213172;23;20456;-90
2024/03/04 05:10:27;;;;;;;40.83;22.13;;;8.90;99.90;;;;;;6211891;22;20087;-91
2024/03/04 05:12:55;;;;;;;47.33;24.25;;;8.90;99.90;;;;;;6212208;22;20031;-90
2024/03/04 05:15:20;;;;;;;41.30;23.38;;;8.90;99.90;;;;;;6212559;22;20124;-92
2024/03/04 05:17:46;;;;;;;61.25;29.08;;;8.90;99.90;;;;;;6212232;22;20398;-92
2024/03/04 05:20:12;;;;;;;52.63;26.98;;;8.90;99.90;;;;;;6212824;22;20008;-90
2024/03/04 05:22:38;;;;;;;53.03;27.15;;;8.80;99.90;;;;;;6212814;22;20358;-91
2024/03/04 05:25:05;;;;;;;40.13;21.33;;;8.80;99.90;;;;;;6213949;23;20019;-91
2024/03/04 05:27:32;;;;;;;52.10;25.70;;;8.80;99.90;;;;;;6211837;23;20024;-91
2024/03/04 05:29:58;;;;;;;54.20;27.25;;;8.70;99.90;;;;;;6213072;22;20023;-90
2024/03/04 05:32:24;;;;;;;50.05;25.85;;;8.70;99.90;;;;;;6206736;22;20341;-90
2024/03/04 05:34:50;;;;;;;43.47;23.70;;;8.80;99.90;;;;;;6212813;22;20504;-89
2024/03/04 05:37:17;;;;;;;50.55;26.83;;;8.80;99.90;;;;;;6211519;22;20290;-89
2024/03/04 05:39:46;;;;;;;43.40;23.50;;;8.80;99.90;;;;;;6212937;22;20012;-90
2024/03/04 05:42:12;;;;;;;57.63;29.45;;;8.70;99.90;;;;;;6212172;22;20008;-89
2024/03/04 05:44:38;;;;;;;53.58;24.38;;;8.70;99.90;;;;;;6211083;22;20091;-89
2024/03/04 05:47:04;;;;;;;51.15;26.70;;;8.70;99.90;;;;;;6214454;23;20363;-89
2024/03/04 05:49:29;;;;;;;44.75;22.05;;;8.70;99.90;;;;;;6214524;23;20008;-89
2024/03/04 05:51:58;;;;;;;60.20;28.63;;;8.70;99.90;;;;;;6200071;22;20036;-89
2024/03/04 05:54:23;;;;;;;51.42;24.77;;;8.70;99.90;;;;;;6214228;22;20027;-89
2024/03/04 05:56:49;;;;;;;43.83;21.17;;;8.50;99.90;;;;;;6213122;22;20082;-91
2024/03/04 05:59:14;;;;;;;53.00;26.23;;;8.70;99.90;;;;;;6214522;22;20012;-91
2024/03/04 06:01:47;;;;;;;55.75;26.67;;;8.70;99.90;;;;;;6213727;22;20062;-89
2024/03/04 06:04:13;;;;;;;58.00;28.45;;;8.60;99.90;;;;;;6212219;22;20015;-89
2024/03/04 06:06:40;;;;;;;57.05;29.08;;;8.60;99.90;;;;;;6215373;22;20008;-89
2024/03/04 06:09:08;;;;;;;49.67;25.08;;;8.60;99.90;;;;;;6240184;22;20008;-89
2024/03/04 06:11:33;;;;;;;52.78;24.92;;;8.60;99.90;;;;;;6189568;23;20023;-89
2024/03/04 06:13:59;;;;;;;48.47;22.67;;;8.60;99.90;;;;;;6212460;22;20027;-89
2024/03/04 06:16:25;;;;;;;50.15;23.38;;;8.60;99.90;;;;;;6213899;22;20016;-88
2024/03/04 06:18:50;;;;;;;47.13;25.58;;;8.60;99.90;;;;;;6212695;22;20042;-89
2024/03/04 06:21:16;;;;;;;44.47;23.70;;;8.60;99.90;;;;;;6213104;22;20008;-89
2024/03/04 06:23:41;;;;;;;38.60;20.50;;;8.60;99.90;;;;;;6211646;22;20016;-90
2024/03/04 06:26:11;;;;;;;42.70;22.23;;;8.70;99.90;;;;;;6212619;22;20004;-88
2024/03/04 06:28:37;;;;;;;47.15;22.55;;;8.70;99.90;;;;;;6214923;22;20012;-88
2024/03/04 06:31:03;;;;;;;46.63;22.20;;;8.80;99.90;;;;;;6213460;23;20501;-90
2024/03/04 06:33:28;;;;;;;49.13;22.92;;;8.60;99.90;;;;;;6212847;22;20020;-89
2024/03/04 06:35:54;;;;;;;46.13;21.63;;;8.60;99.90;;;;;;6213601;22;20016;-90
2024/03/04 06:38:20;;;;;;;48.70;23.58;;;8.50;99.90;;;;;;6213535;22;20012;-89
2024/03/04 06:40:48;;;;;;;43.97;19.23;;;8.60;99.90;;;;;;6210714;22;20023;-89
2024/03/04 06:43:13;;;;;;;42.65;21.35;;;8.60;99.90;;;;;;6212329;22;20008;-88
2024/03/04 06:45:41;;;;;;;46.42;22.40;;;8.60;99.90;;;;;;6212025;22;20319;-89
2024/03/04 06:48:07;;;;;;;45.00;20.75;;;8.60;99.90;;;;;;6212336;22;20461;-89
2024/03/04 06:50:33;;;;;;;39.88;20.13;;;8.50;99.90;;;;;;6212925;23;20008;-88
2024/03/04 06:52:59;;;;;;;45.13;22.73;;;8.60;99.90;;;;;;6214025;22;20516;-89
2024/03/04 06:55:25;;;;;;;56.08;24.60;;;8.60;99.90;;;;;;6214045;22;20067;-89
2024/03/04 06:57:50;;;;;;;60.15;25.13;;;8.60;99.90;;;;;;6212800;22;20032;-88
2024/03/04 07:00:17;;;;;;;55.20;25.55;;;8.60;99.90;;;;;;6212230;22;20130;-89
2024/03/04 07:02:42;;;;;;;47.33;21.17;;;8.60;99.90;;;;;;6211184;22;20346;-90
2024/03/04 07:05:08;;;;;;;52.97;27.13;;;8.60;99.90;;;;;;6212645;22;20108;-90
2024/03/04 07:07:34;;;;;;;49.70;22.33;;;8.60;99.90;;;;;;6189239;23;20008;-90
2024/03/04 07:10:02;;;;;;;47.17;22.17;;;8.60;99.90;;;;;;6213843;22;20460;-90
2024/03/04 07:12:28;;;;;;;49.50;23.48;;;8.60;99.90;;;;;;6215254;22;20091;-90
2024/03/04 07:14:53;;;;;;;48.67;24.13;;;8.60;99.90;;;;;;6189060;23;20406;-90
2024/03/04 07:17:19;;;;;;;45.28;20.23;;;8.70;99.90;;;;;;6171638;23;20035;-90
2024/03/04 07:19:50;;;;;;;39.67;19.85;;;8.60;99.90;;;;;;6209795;23;20019;-91
2024/03/04 07:22:16;;;;;;;38.92;20.13;;;8.60;99.90;;;;;;6202772;23;20464;-90
2024/03/04 07:24:42;;;;;;;50.72;23.38;;;8.80;99.90;;;;;;6208476;23;20008;-91
2024/03/04 07:27:08;;;;;;;49.67;24.55;;;8.80;99.90;;;;;;6166185;23;20060;-91
2024/03/04 07:29:33;;;;;;;35.22;19.20;;;8.70;99.90;;;;;;6133235;23;20039;-90
2024/03/04 07:31:59;;;;;;;49.47;23.05;;;8.70;99.90;;;;;;6215255;23;20008;-91
2024/03/04 07:34:26;;;;;;;49.15;23.23;;;8.80;99.90;;;;;;6186094;23;20016;-91
2024/03/04 07:36:52;;;;;;;36.58;18.65;;;8.60;99.90;;;;;;6192244;23;20009;-91
2024/03/04 07:39:18;;;;;;;49.65;24.38;;;8.80;99.90;;;;;;6196161;23;20388;-91
2024/03/04 07:41:44;;;;;;;42.95;23.13;;;8.80;99.90;;;;;;6193393;23;20043;-92
2024/03/04 07:44:10;;;;;;;48.85;24.88;;;8.80;99.90;;;;;;6200524;23;20461;-90
2024/03/04 07:46:36;;;;;;;46.08;23.45;;;8.80;99.90;;;;;;6200697;23;20082;-89
2024/03/04 07:49:02;;;;;;;36.53;20.92;;;8.90;99.90;;;;;;6205834;23;20430;-90
2024/03/04 07:51:30;;;;;;;50.67;21.40;;;8.90;99.90;;;;;;6205518;23;20008;-90
2024/03/04 07:53:58;;;;;;;37.25;19.80;;;8.90;99.90;;;;;;6202942;23;20438;-90
2024/03/04 07:56:35;;;;;;;49.05;24.27;;;8.80;99.90;;;;;;6202104;23;20012;-90
2024/03/04 07:59:01;;;;;;;40.58;20.15;;;9.00;99.90;;;;;;6178953;23;20012;-90
2024/03/04 08:01:26;;;;;;;37.60;20.65;;;8.80;99.90;;;;;;6207825;23;20079;-91
2024/03/04 08:03:52;;;;;;;45.75;21.50;;;8.90;99.90;;;;;;6207503;23;20115;-91
2024/03/04 08:06:19;;;;;;;33.78;18.60;;;9.00;99.90;;;;;;6186285;23;20091;-90
2024/03/04 08:08:48;;;;;;;36.92;18.15;;;8.90;99.90;;;;;;6211415;23;20732;-91
2024/03/04 08:11:14;;;;;;;39.47;23.15;;;9.00;99.90;;;;;;6213045;23;20011;-90
2024/03/04 08:13:40;;;;;;;39.95;21.23;;;9.10;99.90;;;;;;6210135;23;20438;-89
2024/03/04 08:16:06;;;;;;;28.65;17.30;;;9.10;99.90;;;;;;6215693;23;20038;-89
2024/03/04 08:18:31;;;;;;;33.83;18.17;;;9.10;99.90;;;;;;6214683;23;20012;-90
2024/03/04 08:20:57;;;;;;;32.20;17.23;;;9.10;99.90;;;;;;6212474;23;20024;-90
2024/03/04 08:23:24;;;;;;;35.22;16.92;;;9.10;99.90;;;;;;6212841;23;20087;-91
2024/03/04 08:25:50;;;;;;;30.05;16.02;;;9.10;99.90;;;;;;6212074;23;20016;-90
2024/03/04 08:28:16;;;;;;;30.75;16.33;;;9.20;99.90;;;;;;6190091;23;20012;-90
2024/03/04 08:30:41;;;;;;;44.53;18.15;;;9.20;99.90;;;;;;6210890;23;20012;-90
2024/03/04 08:33:16;;;;;;;26.25;15.07;;;9.30;99.90;;;;;;6214316;23;20565;-90
2024/03/04 08:35:42;;;;;;;25.73;12.75;;;9.30;99.90;;;;;;6209312;23;20023;-90
2024/03/04 08:38:08;;;;;;;26.60;15.82;;;9.30;99.90;;;;;;6210821;23;20016;-89
2024/03/04 08:40:36;;;;;;;24.45;14.57;;;9.40;99.90;;;;;;6212843;23;20012;-91
2024/03/04 08:43:03;;;;;;;25.55;15.23;;;9.40;99.90;;;;;;6211350;23;20012;-90
2024/03/04 08:45:29;;;;;;;22.42;13.57;;;9.50;99.90;;;;;;6213678;23;20020;-90
2024/03/04 08:47:54;;;;;;;21.88;13.32;;;9.40;99.90;;;;;;6212836;23;20008;-90
2024/03/04 08:50:20;;;;;;;30.55;14.25;;;9.40;99.90;;;;;;6201849;23;20040;-90
2024/03/04 08:52:52;;;;;;;34.53;16.83;;;9.40;99.90;;;;;;6211953;23;20024;-90
2024/03/04 08:55:18;;;;;;;34.72;16.65;;;9.40;99.90;;;;;;6213555;23;20020;-90
2024/03/04 08:57:44;;;;;;;27.73;15.18;;;9.50;99.90;;;;;;6209308;23;20012;-91
2024/03/04 09:00:12;;;;;;;25.10;14.25;;;9.50;99.90;;;;;;6213696;23;20454;-91
2024/03/04 09:02:37;;;;;;;35.85;17.50;;;9.60;99.90;;;;;;6211871;23;20038;-91
2024/03/04 09:05:04;;;;;;;28.30;15.55;;;9.60;99.90;;;;;;6214120;23;20094;-91
2024/03/04 09:07:30;;;;;;;31.55;17.00;;;9.60;99.90;;;;;;6214572;23;20047;-91
2024/03/04 09:09:55;;;;;;;36.00;16.02;;;9.60;99.90;;;;;;6214076;23;20016;-91
2024/03/04 09:12:25;;;;;;;33.60;17.58;;;9.60;99.90;;;;;;6213969;22;20024;-92
2024/03/04 09:14:51;;;;;;;25.60;13.98;;;9.70;99.90;;;;;;6188413;23;20469;-91
2024/03/04 09:17:21;;;;;;;28.38;15.95;;;9.70;99.90;;;;;;6214528;23;20075;-92
2024/03/04 09:19:46;;;;;;;28.45;17.10;;;9.80;99.90;;;;;;6215089;23;20082;-91
2024/03/04 09:22:13;;;;;;;34.17;18.75;;;9.80;99.90;;;;;;6214146;23;20484;-91
2024/03/04 09:24:43;;;;;;;31.52;19.77;;;9.70;99.90;;;;;;6212176;23;20082;-91
2024/03/04 09:27:10;;;;;;;33.40;19.73;;;9.70;99.90;;;;;;6195340;23;20091;-91
2024/03/04 09:29:36;;;;;;;37.13;18.55;;;9.70;99.90;;;;;;6174076;23;20015;-91
2024/03/04 09:32:02;;;;;;;34.95;20.05;;;9.70;99.90;;;;;;6215953;23;20849;-91
2024/03/04 09:34:27;;;;;;;30.13;16.33;;;9.70;99.90;;;;;;6215773;23;20020;-91
2024/03/04 09:36:53;;;;;;;39.67;18.98;;;9.90;99.90;;;;;;6215864;23;20020;-91
2024/03/04 09:39:18;;;;;;;33.30;17.27;;;10.00;99.90;;;;;;6216493;23;20012;-92
2024/03/04 09:41:44;;;;;;;37.15;17.92;;;10.00;99.90;;;;;;6201103;23;20016;-91
2024/03/04 09:44:10;;;;;;;32.20;16.48;;;10.10;99.90;;;;;;6215143;23;20062;-92
2024/03/04 09:46:37;;;;;;;29.10;16.92;;;10.00;99.90;;;;;;6215904;23;20008;-91
2024/03/04 09:49:03;;;;;;;27.98;17.00;;;10.10;99.90;;;;;;6186496;23;20000;-91
2024/03/04 09:51:30;;;;;;;29.73;18.33;;;10.10;99.90;;;;;;6210121;23;20020;-90
2024/03/04 09:53:57;;;;;;;35.47;19.42;;;10.20;99.90;;;;;;6214612;23;20020;-90
2024/03/04 09:56:22;;;;;;;35.15;19.48;;;10.20;99.90;;;;;;6215824;23;20012;-90
2024/03/04 09:58:48;;;;;;;24.40;11.98;;;10.20;99.90;;;;;;6212533;23;20012;-90
2024/03/04 10:01:13;;;;;;;40.67;22.10;;;10.20;99.90;;;;;;6215041;23;20012;-90
2024/03/04 10:03:39;;;;;;;47.53;25.27;;;10.30;99.90;;;;;;6212879;23;20012;-90
2024/03/04 10:06:06;;;;;;;40.53;21.25;;;10.40;99.90;;;;;;6183647;23;20009;-90
2024/03/04 10:08:31;;;;;;;42.72;22.08;;;10.30;99.90;;;;;;6183645;23;20004;-91
2024/03/04 10:11:00;;;;;;;42.05;23.42;;;10.40;99.90;;;;;;6213461;23;20907;-90
2024/03/04 10:13:25;;;;;;;39.35;21.13;;;10.40;99.90;;;;;;6214495;23;20016;-90
2024/03/04 10:15:51;;;;;;;33.72;19.25;;;10.50;99.90;;;;;;6214584;23;20093;-90
2024/03/04 10:18:17;;;;;;;37.88;22.42;;;10.50;99.90;;;;;;6215017;23;20009;-90
2024/03/04 10:20:43;;;;;;;34.47;20.33;;;10.50;99.90;;;;;;6197354;23;20087;-91
2024/03/04 10:23:10;;;;;;;44.42;23.40;;;10.50;99.90;;;;;;6214836;23;20135;-91
2024/03/04 10:25:35;;;;;;;44.95;23.90;;;10.50;99.90;;;;;;6216866;23;20315;-92
2024/03/04 10:28:02;;;;;;;36.45;22.00;;;10.50;99.90;;;;;;6214309;23;20012;-91
2024/03/04 10:30:31;;;;;;;49.08;25.98;;;10.50;99.90;;;;;;6215978;23;20012;-92
2024/03/04 10:33:00;;;;;;;43.28;23.20;;;10.60;99.90;;;;;;6214825;23;20027;-90
2024/03/04 10:35:26;;;;;;;54.67;28.27;;;10.60;99.90;;;;;;6216244;23;20079;-91
2024/03/04 10:37:55;;;;;;;66.63;30.52;;;10.40;99.90;;;;;;6214036;23;20043;-91
2024/03/04 10:40:22;;;;;;;52.88;26.50;;;10.50;99.90;;;;;;6215392;23;20012;-92
2024/03/04 10:42:48;;;;;;;40.75;19.40;;;10.60;99.90;;;;;;6215497;23;20008;-92
2024/03/04 10:45:15;;;;;;;50.17;24.98;;;10.50;99.90;;;;;;6216604;23;20012;-91
2024/03/04 10:47:50;;;;;;;42.92;21.65;;;10.60;99.90;;;;;;6215980;23;20008;-90
2024/03/04 10:50:15;;;;;;;54.63;28.05;;;10.60;99.90;;;;;;6215525;23;20353;-90
2024/03/04 10:52:43;;;;;;;60.97;27.60;;;10.60;99.90;;;;;;6214902;23;20107;-91
2024/03/04 10:55:11;;;;;;;50.72;26.15;;;10.50;99.90;;;;;;6212198;23;20020;-93
2024/03/04 10:57:37;;;;;;;50.70;28.17;;;10.50;99.90;;;;;;6216641;23;20438;-92
2024/03/04 11:02:59;;;;;;;43.65;24.75;;;10.40;99.90;;;;;;6218687;23;20001;-92
2024/03/04 11:05:27;;;;;;;47.25;23.85;;;10.40;99.90;;;;;;6240847;23;20087;-92
2024/03/04 11:07:56;;;;;;;48.25;26.80;;;10.30;99.90;;;;;;6216123;23;20044;-93
2024/03/04 11:10:29;;;;;;;45.47;23.55;;;10.40;99.90;;;;;;6216482;23;20442;-91
2024/03/04 11:13:19;;;;;;;46.35;24.08;;;10.40;99.90;;;;;;6215564;23;20008;-91
2024/03/04 11:16:16;;;;;;;39.80;22.83;;;10.40;99.90;;;;;;6239629;23;20020;-93
2024/03/04 11:18:55;;;;;;;44.42;23.13;;;10.50;99.90;;;;;;6191407;23;20014;-91
2024/03/04 11:21:21;;;;;;;37.92;22.77;;;10.50;99.90;;;;;;6239206;23;20004;-92
2024/03/04 11:23:47;;;;;;;44.55;24.10;;;10.50;99.90;;;;;;6215204;23;20016;-92
2024/03/04 11:26:13;;;;;;;37.05;20.80;;;10.50;99.90;;;;;;6215780;23;20008;-91
2024/03/04 11:28:38;;;;;;;44.60;24.20;;;10.50;99.90;;;;;;6218351;23;20019;-91
2024/03/04 11:31:11;;;;;;;50.97;27.65;;;10.50;99.90;;;;;;6216697;23;20012;-91
2024/03/04 11:33:37;;;;;;;59.35;31.02;;;10.50;99.90;;;;;;6215567;23;20020;-92
2024/03/04 11:36:03;;;;;;;56.00;26.75;;;10.40;99.90;;;;;;6215803;23;20067;-91
2024/03/04 11:38:29;;;;;;;56.28;27.50;;;10.40;99.90;;;;;;6215244;23;20008;-90
2024/03/04 11:40:58;;;;;;;51.30;27.98;;;10.50;99.90;;;;;;6203885;23;20058;-89
2024/03/04 11:43:40;;;;;;;45.58;25.73;;;10.50;99.90;;;;;;6213099;23;20016;-92
2024/03/04 11:46:13;;;;;;;51.13;27.83;;;10.50;99.90;;;;;;6202173;23;20450;-91
2024/03/04 11:48:39;;;;;;;50.80;25.23;;;10.50;99.90;;;;;;6216306;23;20016;-92
2024/03/04 11:54:36;;;;;;;42.67;24.83;;;10.40;99.90;;;;;;6096066;23;20093;-93
2024/03/04 11:57:03;;;;;;;53.47;25.63;;;10.50;99.90;;;;;;6236901;23;20008;-91
2024/03/04 11:59:29;;;;;;;41.42;22.30;;;10.40;99.90;;;;;;6215039;23;20458;-91
2024/03/04 12:01:55;;;;;;;47.22;24.75;;;10.50;99.90;;;;;;6212076;23;20028;-91
2024/03/04 12:04:24;;;;;;;41.33;23.70;;;10.50;99.90;;;;;;6211743;23;20008;-92
2024/03/04 12:06:50;;;;;;;46.30;24.83;;;10.50;99.90;;;;;;6213187;23;20008;-91
2024/03/04 12:09:16;;;;;;;59.88;30.20;;;10.50;99.90;;;;;;6211535;23;20014;-92
2024/03/04 12:11:42;;;;;;;49.45;26.25;;;10.50;99.90;;;;;;6212026;23;20004;-91
2024/03/04 12:14:08;;;;;;;53.42;27.88;;;10.50;99.90;;;;;;6210681;23;20008;-91
2024/03/04 12:16:34;;;;;;;70.55;33.85;;;10.40;99.90;;;;;;6209561;23;20136;-91
2024/03/04 12:19:01;;;;;;;51.33;27.40;;;10.40;99.90;;;;;;6210981;23;20065;-91
2024/03/04 12:21:30;;;;;;;64.72;33.58;;;10.30;99.90;;;;;;6212019;23;20089;-91
2024/03/04 12:23:56;;;;;;;36.72;21.48;;;10.30;99.90;;;;;;6210954;23;20069;-92
2024/03/04 12:26:22;;;;;;;53.50;30.75;;;10.20;99.90;;;;;;6214215;23;20008;-92
2024/03/04 12:29:00;;;;;;;66.20;35.40;;;10.20;99.90;;;;;;6215228;23;20004;-91
2024/03/04 12:31:26;;;;;;;64.82;37.85;;;10.20;99.90;;;;;;6214087;23;20526;-91
2024/03/04 12:33:59;;;;;;;64.25;34.63;;;10.20;99.90;;;;;;6213456;23;20079;-92
2024/03/04 12:36:27;;;;;;;69.15;37.83;;;10.10;99.90;;;;;;6213757;23;20389;-92
2024/03/04 12:38:56;;;;;;;52.53;29.50;;;10.10;99.90;;;;;;6212247;23;20779;-91
2024/03/04 12:41:21;;;;;;;61.90;32.28;;;10.10;99.90;;;;;;6213647;23;20055;-91